Aérodrome :
LOGIN :

S'inscrire | Disclaimer

   EN    FR    IT 

 










Légende :    VFR   VFR Marginal   IFR   IFR Intensif   IFR Très Intensif
Visi : 
Plafond : 
>= 8 km
>= 3000ft
5 à 8 km
1000 à 3000 ft
1500m à 5 km
500 à 1000 ft
800 à 1500m
200 à 500 ft
< 800m
< 200 ft
Symboles :   Orages  Brouillard  Fortes neiges  Fortes précipitations  Vent > 20 kt
SIGMETs :   Divers  Orages  Givrage  Turbulence  Onde Orograph.  Cendres Volcan.







- Altitude de l'aérodrome : 87 ft
- Code IATA : FSC
- Voir les cartes d'approche


LFKF - Figari

DERNIER METAR :
  • 250930Z AUTO 20008KT 160V240 CAVOK 27/15 Q1014 TEMPO TSRA FEW030CB BKN080

METARs EXPIRÉS :
  • 250900Z AUTO 21007KT 150V250 CAVOK 27/16 Q1014 BECMG FEW030TCU
  • 250830Z AUTO 21006KT 180V250 CAVOK 26/15 Q1014 BECMG FEW030TCU
  • 250800Z AUTO 23007KT CAVOK 26/14 Q1014 NOSIG
  • 250730Z AUTO VRB02KT CAVOK 25/13 Q1014 NOSIG
  • 250700Z AUTO VRB01KT CAVOK 25/15 Q1014 NOSIG

TAF TAF LFKF
Valide du 25 à 09h jusqu'au 26 à 09h UTC


250800Z 2509/2609 VRB05KT CAVOK
BECMG 2509/2510 24010KT FEW030TCU
TEMPO 2511/2519 SCT040CB
PROB40
TEMPO 2511/2518 TSRA FEW030CB BKN080
BECMG 2519/2520 VRB05KT CAVOK
Pas de NOTAMs connus pour ce terrain.



MET'MAP, la Météo Aéronautique d'un coup d'oeil ! - Copyright ORBIFLY Décembre 2007 - Disclaimer

ORBIFLY MET'MAP TEAM :

Programmation & Développement : Alexandra Zaïnal
Conception & Développement : Baudouin d'Aumeries
Co-Programmation & Développement : Marc-Olivier Méhu
Soutien technique & logistique : Manuel Goepfert

Contact : metmap@orbifly.com




SOURCES & CREDITS :

   NOAA